International Virtual Aviation Organisation

Eastern Europe and Northern Asia MCD

 
UNNT 101030Z 06007MPS CAVOK 09/M06 Q1037 R07/090070 R16/090070 NOSIG RMK QFE768/1024
QNH:(hPa/inHg/mmHg)1037 / 30.62 / 778
QFE:(hPa/inHg/mmHg)1023 / 30.22 / 768
Temperature9
Dew Point-6
Visibility> 10000
WeatherCAVOK
Cloud Cover
Transition Height1300 m./4700 ft.
Transition LevelFL60
SQUAWK